createdAt,value
2019-02-06T00:01:51.953Z,74.00
2019-02-06T00:06:55.556Z,74.48
2019-02-06T00:11:59.097Z,73.85
2019-02-06T00:17:02.711Z,73.75
2019-02-06T00:22:07.443Z,74.10
2019-02-06T00:27:10.862Z,74.48
2019-02-06T00:32:14.685Z,74.37
2019-02-06T00:37:18.205Z,74.16
2019-02-06T00:42:21.619Z,74.15
2019-02-06T00:47:25.092Z,74.21
2019-02-06T00:52:28.532Z,74.05
2019-02-06T00:57:32.149Z,74.17
2019-02-06T01:02:35.656Z,73.93
2019-02-06T01:07:39.068Z,74.55
2019-02-06T01:12:42.704Z,74.14
2019-02-06T01:17:46.161Z,74.43
2019-02-06T01:22:49.718Z,74.92
2019-02-06T01:27:53.099Z,74.45
2019-02-06T01:32:57.253Z,74.56
2019-02-06T01:38:00.637Z,74.50
2019-02-06T01:43:04.321Z,74.70
2019-02-06T01:48:07.761Z,74.63
2019-02-06T01:53:11.346Z,74.93
2019-02-06T01:58:14.758Z,74.76
2019-02-06T02:03:18.295Z,74.52
2019-02-06T02:08:21.808Z,74.68
2019-02-06T02:13:25.401Z,74.19
2019-02-06T02:18:28.833Z,74.27
2019-02-06T02:23:32.427Z,74.28
2019-02-06T02:28:35.993Z,73.88
2019-02-06T02:33:39.434Z,73.48
2019-02-06T02:38:43.115Z,73.79
2019-02-06T02:43:46.575Z,73.53
2019-02-06T02:48:50.118Z,73.71
2019-02-06T02:53:53.569Z,72.84
2019-02-06T02:58:57.110Z,72.90
2019-02-06T03:04:04.964Z,72.90
2019-02-06T03:09:11.911Z,72.63
2019-02-06T03:14:15.388Z,72.81
2019-02-06T03:19:18.768Z,73.25
2019-02-06T03:24:22.282Z,72.99
2019-02-06T03:29:25.822Z,73.01
2019-02-06T03:34:29.382Z,72.89
2019-02-06T03:39:32.765Z,73.02
2019-02-06T03:44:36.248Z,72.81
2019-02-06T03:49:42.684Z,72.67
2019-02-06T03:54:43.257Z,73.15
2019-02-06T03:59:46.696Z,72.52
2019-02-06T04:04:50.200Z,72.93
2019-02-06T04:09:53.740Z,72.49
2019-02-06T04:14:57.474Z,72.58
2019-02-06T04:20:01.342Z,72.47
2019-02-06T04:25:05.233Z,72.08
2019-02-06T04:30:09.769Z,72.11
2019-02-06T04:35:13.242Z,71.91
2019-02-06T04:40:17.911Z,72.34
2019-02-06T04:45:21.380Z,72.29
2019-02-06T04:50:26.667Z,72.27
2019-02-06T04:55:30.449Z,71.88
2019-02-06T05:00:33.840Z,72.31
2019-02-06T05:05:37.346Z,72.26
2019-02-06T05:10:40.834Z,72.16
2019-02-06T05:15:44.356Z,72.25
2019-02-06T05:20:47.773Z,71.88
2019-02-06T05:25:51.206Z,72.32
2019-02-06T05:30:54.651Z,72.38
2019-02-06T05:35:58.178Z,72.44
2019-02-06T05:41:01.568Z,72.25
2019-02-06T05:46:04.968Z,72.38
2019-02-06T05:51:08.549Z,72.22
2019-02-06T05:56:11.968Z,71.82
2019-02-06T06:01:15.370Z,71.77
2019-02-06T06:06:18.857Z,71.87
2019-02-06T06:11:22.269Z,71.57
2019-02-06T06:16:25.672Z,72.04
2019-02-06T06:21:29.058Z,72.21
2019-02-06T06:26:32.582Z,71.96
2019-02-06T06:31:36.079Z,71.69
2019-02-06T06:36:39.457Z,72.14
2019-02-06T06:41:42.925Z,71.63
2019-02-06T06:46:46.319Z,72.11
2019-02-06T06:51:49.740Z,72.40
2019-02-06T06:56:53.201Z,71.87
2019-02-06T07:01:56.605Z,72.50
2019-02-06T07:06:59.980Z,71.88
2019-02-06T07:12:03.482Z,71.69
2019-02-06T07:17:06.988Z,72.00
2019-02-06T07:22:10.392Z,71.50
2019-02-06T07:27:13.944Z,71.30
2019-02-06T07:32:17.355Z,71.52
2019-02-06T07:37:20.877Z,71.50
2019-02-06T07:42:24.312Z,71.70
2019-02-06T07:47:27.784Z,71.23
2019-02-06T07:52:31.241Z,71.22
2019-02-06T07:57:34.629Z,71.32
2019-02-06T08:02:38.041Z,71.59
2019-02-06T08:07:41.544Z,70.94
2019-02-06T08:12:44.932Z,71.43
2019-02-06T08:17:48.488Z,71.54
2019-02-06T08:22:51.896Z,71.83
2019-02-06T08:27:55.531Z,71.64
2019-02-06T08:32:58.986Z,71.80
2019-02-06T08:38:02.465Z,72.31
2019-02-06T08:43:05.964Z,72.20
2019-02-06T08:48:09.506Z,72.20
2019-02-06T08:53:13.459Z,72.42
2019-02-06T08:58:16.936Z,72.43
2019-02-06T09:03:20.354Z,71.92
2019-02-06T09:08:23.741Z,71.86
2019-02-06T09:13:27.575Z,71.82
2019-02-06T09:18:30.959Z,71.52
2019-02-06T09:23:34.447Z,71.93
2019-02-06T09:28:37.966Z,71.05
2019-02-06T09:33:41.455Z,71.70
2019-02-06T09:38:45.072Z,71.23
2019-02-06T09:43:48.447Z,71.56
2019-02-06T09:48:51.880Z,70.99
2019-02-06T09:53:55.292Z,70.54
2019-02-06T09:58:58.910Z,70.84
2019-02-06T10:04:02.427Z,70.21
2019-02-06T10:09:08.214Z,70.45
2019-02-06T10:14:11.695Z,70.86
2019-02-06T10:19:15.231Z,70.62
2019-02-06T10:24:19.183Z,70.55
2019-02-06T10:29:22.985Z,70.48
2019-02-06T10:34:26.984Z,70.42
2019-02-06T10:39:34.567Z,70.39
2019-02-06T10:44:33.881Z,69.93
2019-02-06T10:49:37.514Z,70.05
2019-02-06T10:54:41.058Z,69.79
2019-02-06T10:59:44.494Z,69.96
2019-02-06T11:04:48.219Z,69.85
2019-02-06T11:09:51.725Z,69.97
2019-02-06T11:14:55.691Z,69.84
2019-02-06T11:19:59.247Z,69.57
2019-02-06T11:25:04.657Z,69.66
2019-02-06T11:30:09.402Z,69.10
2019-02-06T11:35:12.828Z,68.95
2019-02-06T11:40:18.638Z,68.89
2019-02-06T11:45:24.463Z,70.00
2019-02-06T11:50:35.494Z,69.51
2019-02-06T11:55:38.931Z,69.90
2019-02-06T12:00:49.785Z,69.84
2019-02-06T12:05:53.235Z,69.78
2019-02-06T12:10:56.677Z,69.26
2019-02-06T12:16:00.177Z,69.87
2019-02-06T12:21:03.655Z,68.98
2019-02-06T12:26:07.325Z,69.44
2019-02-06T12:31:10.769Z,69.88
2019-02-06T12:36:15.833Z,69.06
2019-02-06T12:41:17.810Z,69.59
2019-02-06T12:46:21.276Z,69.03
2019-02-06T12:51:24.723Z,69.38
2019-02-06T13:01:43.748Z,69.34
2019-02-06T13:06:47.149Z,70.01
2019-02-06T13:11:50.688Z,69.85
2019-02-06T13:16:54.095Z,70.11
2019-02-06T13:21:57.573Z,69.65
2019-02-06T13:27:01.004Z,69.81
2019-02-06T13:32:04.567Z,70.06
2019-02-06T13:37:08.109Z,70.17
2019-02-06T13:42:11.779Z,70.23
2019-02-06T13:47:15.275Z,70.19
2019-02-06T13:52:18.830Z,70.50
2019-02-06T13:57:33.140Z,70.11
2019-02-06T14:02:25.848Z,70.85
2019-02-06T14:07:29.448Z,70.71
2019-02-06T14:12:33.220Z,70.71
2019-02-06T14:17:36.881Z,70.83
2019-02-06T14:22:40.850Z,70.99
2019-02-06T14:27:53.406Z,71.00
2019-02-06T14:33:12.044Z,71.45
2019-02-06T14:38:29.772Z,70.77
2019-02-06T14:43:44.378Z,70.56
2019-02-06T14:50:29.415Z,70.75
2019-02-06T14:57:44.560Z,70.53
2019-02-06T15:05:29.734Z,71.06
2019-02-06T15:10:41.577Z,71.25
2019-02-06T15:16:02.793Z,71.30
2019-02-06T15:21:17.661Z,71.29
2019-02-06T15:28:44.276Z,71.70
2019-02-06T15:33:59.028Z,71.73
2019-02-06T15:39:18.168Z,71.43
2019-02-06T15:44:33.109Z,71.46
2019-02-06T15:49:46.710Z,71.40
2019-02-06T15:55:03.640Z,71.12
2019-02-06T16:00:24.714Z,71.42
2019-02-06T16:05:52.180Z,71.34
2019-02-06T16:13:09.773Z,71.26
2019-02-06T16:18:26.197Z,71.15
2019-02-06T16:23:46.109Z,71.49
2019-02-06T16:29:02.411Z,71.67
2019-02-06T16:34:25.639Z,71.87
2019-02-06T16:39:48.598Z,71.75
2019-02-06T16:45:02.150Z,71.42
2019-02-06T16:50:15.324Z,71.34
2019-02-06T16:55:33.068Z,71.91
2019-02-06T17:00:51.399Z,71.89
2019-02-06T17:06:05.537Z,71.99
2019-02-06T17:11:48.734Z,72.22
2019-02-06T17:17:00.250Z,72.27
2019-02-06T17:22:14.096Z,71.92
2019-02-06T17:27:37.553Z,72.30
2019-02-06T17:34:58.300Z,72.30
2019-02-06T17:40:14.263Z,72.58
2019-02-06T17:46:59.493Z,72.57
2019-02-06T17:52:49.065Z,72.77
2019-02-06T17:57:55.576Z,72.52
2019-02-06T18:03:00.376Z,72.77
2019-02-06T18:08:04.007Z,72.97
2019-02-06T18:13:07.792Z,73.21
2019-02-06T18:18:11.448Z,73.34
2019-02-06T18:23:15.034Z,72.86
2019-02-06T18:28:18.823Z,73.12
2019-02-06T18:33:22.682Z,73.13
2019-02-06T18:38:26.458Z,73.62
2019-02-06T18:43:31.308Z,73.42
2019-02-06T18:48:35.648Z,74.03
2019-02-06T18:53:39.500Z,74.06
2019-02-06T18:58:43.237Z,73.65
2019-02-06T19:03:48.261Z,74.18
2019-02-06T19:08:52.849Z,74.12
2019-02-06T19:13:58.325Z,74.35
2019-02-06T19:19:00.301Z,74.53
2019-02-06T19:24:04.095Z,74.79
2019-02-06T19:29:07.722Z,74.41
2019-02-06T19:34:11.474Z,74.61
2019-02-06T19:39:15.192Z,74.71
2019-02-06T19:44:18.985Z,74.37
2019-02-06T19:49:22.821Z,74.20
2019-02-06T19:54:26.422Z,74.94
2019-02-06T19:59:30.955Z,74.75
2019-02-06T20:04:36.128Z,74.43
2019-02-06T20:09:40.379Z,74.26
2019-02-06T20:14:44.394Z,74.50
2019-02-06T20:19:48.261Z,74.80
2019-02-06T20:24:52.090Z,75.08
2019-02-06T20:29:55.971Z,75.09
2019-02-06T20:35:00.334Z,75.25
2019-02-06T20:40:05.015Z,75.08
2019-02-06T20:45:09.295Z,74.70
2019-02-06T20:50:17.414Z,74.10
2019-02-06T20:55:21.355Z,74.35
2019-02-06T21:00:28.349Z,74.18
2019-02-06T21:05:32.279Z,73.79
2019-02-06T21:10:36.364Z,73.69
2019-02-06T21:15:40.203Z,73.33
2019-02-06T21:20:44.066Z,72.90
2019-02-06T21:25:48.027Z,73.32
2019-02-06T21:30:53.057Z,72.95
2019-02-06T21:35:57.044Z,73.20
2019-02-06T21:41:00.916Z,73.71
2019-02-06T21:46:04.886Z,73.48
2019-02-06T21:51:08.722Z,73.34
2019-02-06T21:56:12.570Z,73.31
2019-02-06T22:01:16.575Z,73.42
2019-02-06T22:06:20.370Z,73.23
2019-02-06T22:11:24.264Z,73.58
2019-02-06T22:16:28.000Z,73.65
2019-02-06T22:21:31.765Z,73.92
2019-02-06T22:26:35.646Z,73.80
2019-02-06T22:31:39.471Z,74.40
2019-02-06T22:36:43.372Z,74.72
2019-02-06T22:41:47.119Z,73.98
2019-02-06T22:46:50.777Z,73.84
2019-02-06T22:51:54.207Z,74.16
2019-02-06T22:56:57.738Z,74.14
2019-02-06T23:02:01.222Z,74.37
2019-02-06T23:07:07.160Z,74.50
2019-02-06T23:12:08.089Z,74.74
2019-02-06T23:17:11.554Z,74.60
2019-02-06T23:22:15.004Z,74.41
2019-02-06T23:27:18.530Z,73.87
2019-02-06T23:32:22.011Z,73.46
2019-02-06T23:37:25.426Z,73.57
2019-02-06T23:42:28.926Z,73.07
2019-02-06T23:47:32.348Z,73.05
2019-02-06T23:52:35.781Z,73.19
2019-02-06T23:57:39.209Z,73.25
